sensor_id;sensor_type;location;lat;lon;timestamp;P1;durP1;ratioP1;P2;durP2;ratioP2
56653;SDS011;45096;52.302;4.634;2022-12-29T00:01:21;4.10;;;3.80;;
56653;SDS011;45096;52.302;4.634;2022-12-29T00:03:46;3.40;;;3.13;;
56653;SDS011;45096;52.302;4.634;2022-12-29T00:06:12;3.45;;;3.00;;
56653;SDS011;45096;52.302;4.634;2022-12-29T00:08:37;2.60;;;2.38;;
56653;SDS011;45096;52.302;4.634;2022-12-29T00:11:03;3.70;;;3.00;;
56653;SDS011;45096;52.302;4.634;2022-12-29T00:13:30;3.05;;;2.85;;
56653;SDS011;45096;52.302;4.634;2022-12-29T00:15:55;2.83;;;2.72;;
56653;SDS011;45096;52.302;4.634;2022-12-29T00:18:21;2.40;;;2.30;;
56653;SDS011;45096;52.302;4.634;2022-12-29T00:20:46;3.33;;;2.60;;
56653;SDS011;45096;52.302;4.634;2022-12-29T00:23:11;2.80;;;2.33;;
56653;SDS011;45096;52.302;4.634;2022-12-29T00:25:37;3.38;;;2.20;;
56653;SDS011;45096;52.302;4.634;2022-12-29T00:28:02;4.53;;;2.45;;
56653;SDS011;45096;52.302;4.634;2022-12-29T00:30:29;2.60;;;2.40;;
56653;SDS011;45096;52.302;4.634;2022-12-29T00:32:55;2.20;;;2.10;;
56653;SDS011;45096;52.302;4.634;2022-12-29T00:35:22;2.08;;;1.98;;
56653;SDS011;45096;52.302;4.634;2022-12-29T00:37:50;2.25;;;2.05;;
56653;SDS011;45096;52.302;4.634;2022-12-29T00:40:16;2.20;;;2.10;;
56653;SDS011;45096;52.302;4.634;2022-12-29T00:42:41;2.10;;;2.00;;
56653;SDS011;45096;52.302;4.634;2022-12-29T00:45:07;3.65;;;2.42;;
56653;SDS011;45096;52.302;4.634;2022-12-29T00:47:34;2.58;;;2.10;;
56653;SDS011;45096;52.302;4.634;2022-12-29T00:49:59;3.33;;;2.25;;
56653;SDS011;45096;52.302;4.634;2022-12-29T00:52:25;2.17;;;2.00;;
56653;SDS011;45096;52.302;4.634;2022-12-29T00:54:50;2.47;;;2.00;;
56653;SDS011;45096;52.302;4.634;2022-12-29T00:57:16;2.00;;;1.90;;
56653;SDS011;45096;52.302;4.634;2022-12-29T00:59:41;1.90;;;1.80;;
56653;SDS011;45096;52.302;4.634;2022-12-29T01:02:07;2.08;;;1.73;;
56653;SDS011;45096;52.302;4.634;2022-12-29T01:04:34;3.30;;;2.15;;
56653;SDS011;45096;52.302;4.634;2022-12-29T01:07:00;2.10;;;1.80;;
56653;SDS011;45096;52.302;4.634;2022-12-29T01:09:25;1.77;;;1.67;;
56653;SDS011;45096;52.302;4.634;2022-12-29T01:11:50;1.67;;;1.55;;
56653;SDS011;45096;52.302;4.634;2022-12-29T01:14:16;1.92;;;1.67;;
56653;SDS011;45096;52.302;4.634;2022-12-29T01:16:42;1.60;;;1.50;;
56653;SDS011;45096;52.302;4.634;2022-12-29T01:19:07;2.20;;;2.03;;
56653;SDS011;45096;52.302;4.634;2022-12-29T01:21:34;1.70;;;1.60;;
56653;SDS011;45096;52.302;4.634;2022-12-29T01:24:00;1.83;;;1.73;;
56653;SDS011;45096;52.302;4.634;2022-12-29T01:26:25;1.90;;;1.45;;
56653;SDS011;45096;52.302;4.634;2022-12-29T01:28:51;2.55;;;1.77;;
56653;SDS011;45096;52.302;4.634;2022-12-29T01:31:16;1.48;;;1.40;;
56653;SDS011;45096;52.302;4.634;2022-12-29T01:33:42;1.85;;;1.60;;
56653;SDS011;45096;52.302;4.634;2022-12-29T01:36:09;1.73;;;1.63;;
56653;SDS011;45096;52.302;4.634;2022-12-29T01:38:37;1.80;;;1.70;;
56653;SDS011;45096;52.302;4.634;2022-12-29T01:41:03;1.85;;;1.73;;
56653;SDS011;45096;52.302;4.634;2022-12-29T01:43:38;1.77;;;1.67;;
56653;SDS011;45096;52.302;4.634;2022-12-29T01:46:04;1.35;;;1.35;;
56653;SDS011;45096;52.302;4.634;2022-12-29T01:48:39;2.22;;;1.45;;
56653;SDS011;45096;52.302;4.634;2022-12-29T01:51:04;1.98;;;1.50;;
56653;SDS011;45096;52.302;4.634;2022-12-29T01:53:30;1.35;;;1.27;;
56653;SDS011;45096;52.302;4.634;2022-12-29T01:55:59;2.78;;;1.38;;
56653;SDS011;45096;52.302;4.634;2022-12-29T01:58:27;3.42;;;1.75;;
56653;SDS011;45096;52.302;4.634;2022-12-29T02:00:55;2.08;;;1.30;;
56653;SDS011;45096;52.302;4.634;2022-12-29T02:03:21;1.20;;;1.20;;
56653;SDS011;45096;52.302;4.634;2022-12-29T02:05:49;6.07;;;1.50;;
56653;SDS011;45096;52.302;4.634;2022-12-29T02:08:18;8.23;;;2.05;;
56653;SDS011;45096;52.302;4.634;2022-12-29T02:10:44;8.00;;;1.80;;
56653;SDS011;45096;52.302;4.634;2022-12-29T02:13:11;3.90;;;1.75;;
56653;SDS011;45096;52.302;4.634;2022-12-29T02:15:51;3.65;;;1.50;;
56653;SDS011;45096;52.302;4.634;2022-12-29T02:18:25;3.30;;;1.65;;
56653;SDS011;45096;52.302;4.634;2022-12-29T02:21:09;9.52;;;2.15;;
56653;SDS011;45096;52.302;4.634;2022-12-29T02:24:00;6.07;;;1.73;;
56653;SDS011;45096;52.302;4.634;2022-12-29T02:26:51;5.72;;;1.85;;
56653;SDS011;45096;52.302;4.634;2022-12-29T02:29:36;2.67;;;1.33;;
56653;SDS011;45096;52.302;4.634;2022-12-29T02:32:10;6.38;;;1.30;;
56653;SDS011;45096;52.302;4.634;2022-12-29T02:34:42;4.05;;;1.48;;
56653;SDS011;45096;52.302;4.634;2022-12-29T02:37:16;7.88;;;1.95;;
56653;SDS011;45096;52.302;4.634;2022-12-29T02:39:47;3.20;;;1.50;;
56653;SDS011;45096;52.302;4.634;2022-12-29T02:42:20;5.65;;;1.83;;
56653;SDS011;45096;52.302;4.634;2022-12-29T02:44:50;3.70;;;1.10;;
56653;SDS011;45096;52.302;4.634;2022-12-29T02:47:22;8.85;;;1.80;;
56653;SDS011;45096;52.302;4.634;2022-12-29T02:49:50;4.93;;;1.80;;
56653;SDS011;45096;52.302;4.634;2022-12-29T02:52:20;5.40;;;1.38;;
56653;SDS011;45096;52.302;4.634;2022-12-29T02:54:48;8.07;;;2.35;;
56653;SDS011;45096;52.302;4.634;2022-12-29T02:57:15;8.38;;;1.60;;
56653;SDS011;45096;52.302;4.634;2022-12-29T02:59:54;2.00;;;1.40;;
56653;SDS011;45096;52.302;4.634;2022-12-29T03:02:38;4.30;;;1.45;;
56653;SDS011;45096;52.302;4.634;2022-12-29T03:05:17;6.35;;;2.30;;
56653;SDS011;45096;52.302;4.634;2022-12-29T03:07:50;8.27;;;2.30;;
56653;SDS011;45096;52.302;4.634;2022-12-29T03:10:24;2.63;;;1.58;;
56653;SDS011;45096;52.302;4.634;2022-12-29T03:12:56;4.10;;;1.70;;
56653;SDS011;45096;52.302;4.634;2022-12-29T03:15:28;8.52;;;2.40;;
56653;SDS011;45096;52.302;4.634;2022-12-29T03:17:57;7.57;;;1.75;;
56653;SDS011;45096;52.302;4.634;2022-12-29T03:20:29;10.57;;;1.90;;
56653;SDS011;45096;52.302;4.634;2022-12-29T03:22:58;8.85;;;2.30;;
56653;SDS011;45096;52.302;4.634;2022-12-29T03:25:25;6.80;;;2.28;;
56653;SDS011;45096;52.302;4.634;2022-12-29T03:27:55;9.40;;;2.03;;
56653;SDS011;45096;52.302;4.634;2022-12-29T03:30:21;7.95;;;2.50;;
56653;SDS011;45096;52.302;4.634;2022-12-29T03:32:49;8.70;;;2.20;;
56653;SDS011;45096;52.302;4.634;2022-12-29T03:35:19;7.13;;;2.33;;
56653;SDS011;45096;52.302;4.634;2022-12-29T03:37:49;9.48;;;2.67;;
56653;SDS011;45096;52.302;4.634;2022-12-29T03:40:16;5.38;;;2.10;;
56653;SDS011;45096;52.302;4.634;2022-12-29T03:42:43;5.45;;;1.77;;
56653;SDS011;45096;52.302;4.634;2022-12-29T03:45:09;6.78;;;2.40;;
56653;SDS011;45096;52.302;4.634;2022-12-29T03:47:35;7.93;;;2.10;;
56653;SDS011;45096;52.302;4.634;2022-12-29T03:50:00;8.15;;;2.47;;
56653;SDS011;45096;52.302;4.634;2022-12-29T03:52:27;9.15;;;3.10;;
56653;SDS011;45096;52.302;4.634;2022-12-29T03:54:52;6.90;;;2.67;;
56653;SDS011;45096;52.302;4.634;2022-12-29T03:57:18;12.02;;;2.30;;
56653;SDS011;45096;52.302;4.634;2022-12-29T03:59:43;4.93;;;2.13;;
56653;SDS011;45096;52.302;4.634;2022-12-29T04:02:08;12.23;;;2.35;;
56653;SDS011;45096;52.302;4.634;2022-12-29T04:04:34;6.53;;;2.55;;
56653;SDS011;45096;52.302;4.634;2022-12-29T04:06:59;6.20;;;2.15;;
56653;SDS011;45096;52.302;4.634;2022-12-29T04:09:26;7.90;;;2.42;;
56653;SDS011;45096;52.302;4.634;2022-12-29T04:11:51;8.73;;;2.40;;
56653;SDS011;45096;52.302;4.634;2022-12-29T04:14:17;5.60;;;2.22;;
56653;SDS011;45096;52.302;4.634;2022-12-29T04:16:42;4.25;;;1.95;;
56653;SDS011;45096;52.302;4.634;2022-12-29T04:19:08;9.32;;;2.67;;
56653;SDS011;45096;52.302;4.634;2022-12-29T04:21:33;11.20;;;2.53;;
56653;SDS011;45096;52.302;4.634;2022-12-29T04:23:59;12.07;;;2.75;;
56653;SDS011;45096;52.302;4.634;2022-12-29T04:26:26;10.38;;;2.53;;
56653;SDS011;45096;52.302;4.634;2022-12-29T04:28:51;9.93;;;2.95;;
56653;SDS011;45096;52.302;4.634;2022-12-29T04:31:17;12.63;;;2.78;;
56653;SDS011;45096;52.302;4.634;2022-12-29T04:33:42;8.55;;;2.55;;
56653;SDS011;45096;52.302;4.634;2022-12-29T04:36:08;11.05;;;3.03;;
56653;SDS011;45096;52.302;4.634;2022-12-29T04:38:33;13.45;;;3.80;;
56653;SDS011;45096;52.302;4.634;2022-12-29T04:40:59;12.95;;;4.00;;
56653;SDS011;45096;52.302;4.634;2022-12-29T04:43:26;18.33;;;3.65;;
56653;SDS011;45096;52.302;4.634;2022-12-29T04:45:52;14.60;;;3.10;;
56653;SDS011;45096;52.302;4.634;2022-12-29T04:48:17;16.27;;;2.78;;
56653;SDS011;45096;52.302;4.634;2022-12-29T04:50:42;10.68;;;3.40;;
56653;SDS011;45096;52.302;4.634;2022-12-29T04:53:08;9.70;;;2.72;;
56653;SDS011;45096;52.302;4.634;2022-12-29T04:55:34;8.00;;;2.92;;
56653;SDS011;45096;52.302;4.634;2022-12-29T04:57:59;10.30;;;3.42;;
56653;SDS011;45096;52.302;4.634;2022-12-29T05:00:26;8.75;;;2.45;;
56653;SDS011;45096;52.302;4.634;2022-12-29T05:02:51;11.40;;;2.47;;
56653;SDS011;45096;52.302;4.634;2022-12-29T05:05:17;9.90;;;2.70;;
56653;SDS011;45096;52.302;4.634;2022-12-29T05:07:42;16.52;;;2.67;;
56653;SDS011;45096;52.302;4.634;2022-12-29T05:10:08;9.95;;;2.78;;
56653;SDS011;45096;52.302;4.634;2022-12-29T05:12:34;7.93;;;2.45;;
56653;SDS011;45096;52.302;4.634;2022-12-29T05:15:01;9.25;;;2.90;;
56653;SDS011;45096;52.302;4.634;2022-12-29T05:17:29;10.52;;;3.60;;
56653;SDS011;45096;52.302;4.634;2022-12-29T05:19:54;12.02;;;4.10;;
56653;SDS011;45096;52.302;4.634;2022-12-29T05:22:20;6.50;;;3.10;;
56653;SDS011;45096;52.302;4.634;2022-12-29T05:24:45;13.88;;;2.72;;
56653;SDS011;45096;52.302;4.634;2022-12-29T05:27:11;11.18;;;2.85;;
56653;SDS011;45096;52.302;4.634;2022-12-29T05:29:36;11.77;;;3.70;;
56653;SDS011;45096;52.302;4.634;2022-12-29T05:32:02;11.73;;;3.75;;
56653;SDS011;45096;52.302;4.634;2022-12-29T05:34:29;12.65;;;3.03;;
56653;SDS011;45096;52.302;4.634;2022-12-29T05:36:54;18.50;;;3.15;;
56653;SDS011;45096;52.302;4.634;2022-12-29T05:39:20;17.65;;;4.30;;
56653;SDS011;45096;52.302;4.634;2022-12-29T05:41:45;12.57;;;3.45;;
56653;SDS011;45096;52.302;4.634;2022-12-29T05:44:10;15.50;;;3.20;;
56653;SDS011;45096;52.302;4.634;2022-12-29T05:46:36;15.63;;;2.97;;
56653;SDS011;45096;52.302;4.634;2022-12-29T05:49:01;11.43;;;3.13;;
56653;SDS011;45096;52.302;4.634;2022-12-29T05:51:28;18.48;;;2.88;;
56653;SDS011;45096;52.302;4.634;2022-12-29T05:53:54;14.10;;;3.67;;
56653;SDS011;45096;52.302;4.634;2022-12-29T05:56:19;16.73;;;2.80;;
56653;SDS011;45096;52.302;4.634;2022-12-29T05:58:45;12.38;;;3.05;;
56653;SDS011;45096;52.302;4.634;2022-12-29T06:01:10;13.55;;;3.97;;
56653;SDS011;45096;52.302;4.634;2022-12-29T06:03:35;16.70;;;4.00;;
56653;SDS011;45096;52.302;4.634;2022-12-29T06:06:01;14.57;;;3.55;;
56653;SDS011;45096;52.302;4.634;2022-12-29T06:08:28;9.70;;;3.08;;
56653;SDS011;45096;52.302;4.634;2022-12-29T06:10:53;14.68;;;4.05;;
56653;SDS011;45096;52.302;4.634;2022-12-29T06:13:18;12.55;;;3.15;;
56653;SDS011;45096;52.302;4.634;2022-12-29T06:15:44;12.50;;;3.35;;
56653;SDS011;45096;52.302;4.634;2022-12-29T06:18:09;15.10;;;3.30;;
56653;SDS011;45096;52.302;4.634;2022-12-29T06:20:35;12.98;;;2.60;;
56653;SDS011;45096;52.302;4.634;2022-12-29T06:23:00;13.57;;;2.95;;
56653;SDS011;45096;52.302;4.634;2022-12-29T06:25:27;15.50;;;3.70;;
56653;SDS011;45096;52.302;4.634;2022-12-29T06:27:52;13.70;;;4.28;;
56653;SDS011;45096;52.302;4.634;2022-12-29T06:30:18;15.38;;;3.33;;
56653;SDS011;45096;52.302;4.634;2022-12-29T06:32:43;15.10;;;3.15;;
56653;SDS011;45096;52.302;4.634;2022-12-29T06:35:09;16.60;;;4.10;;
56653;SDS011;45096;52.302;4.634;2022-12-29T06:37:34;12.18;;;2.95;;
56653;SDS011;45096;52.302;4.634;2022-12-29T06:40:00;20.67;;;3.58;;
56653;SDS011;45096;52.302;4.634;2022-12-29T06:42:27;14.55;;;5.05;;
56653;SDS011;45096;52.302;4.634;2022-12-29T06:44:52;17.75;;;3.47;;
56653;SDS011;45096;52.302;4.634;2022-12-29T06:47:18;19.35;;;3.20;;
56653;SDS011;45096;52.302;4.634;2022-12-29T06:49:43;19.98;;;5.00;;
56653;SDS011;45096;52.302;4.634;2022-12-29T06:52:08;15.77;;;4.57;;
56653;SDS011;45096;52.302;4.634;2022-12-29T06:54:34;12.80;;;3.95;;
56653;SDS011;45096;52.302;4.634;2022-12-29T06:56:59;19.38;;;4.00;;
56653;SDS011;45096;52.302;4.634;2022-12-29T06:59:26;17.42;;;4.40;;
56653;SDS011;45096;52.302;4.634;2022-12-29T07:01:51;18.42;;;5.03;;
56653;SDS011;45096;52.302;4.634;2022-12-29T07:04:17;20.13;;;4.30;;
56653;SDS011;45096;52.302;4.634;2022-12-29T07:06:42;17.58;;;5.40;;
56653;SDS011;45096;52.302;4.634;2022-12-29T07:09:08;15.48;;;4.97;;
56653;SDS011;45096;52.302;4.634;2022-12-29T07:11:33;16.40;;;5.18;;
56653;SDS011;45096;52.302;4.634;2022-12-29T07:13:59;22.00;;;4.50;;
56653;SDS011;45096;52.302;4.634;2022-12-29T07:16:26;15.73;;;3.92;;
56653;SDS011;45096;52.302;4.634;2022-12-29T07:18:51;17.08;;;5.07;;
56653;SDS011;45096;52.302;4.634;2022-12-29T07:21:17;20.80;;;4.50;;
56653;SDS011;45096;52.302;4.634;2022-12-29T07:23:42;19.40;;;4.65;;
56653;SDS011;45096;52.302;4.634;2022-12-29T07:26:09;16.08;;;4.18;;
56653;SDS011;45096;52.302;4.634;2022-12-29T07:28:36;18.23;;;4.47;;
56653;SDS011;45096;52.302;4.634;2022-12-29T07:31:02;17.25;;;5.00;;
56653;SDS011;45096;52.302;4.634;2022-12-29T07:33:29;22.33;;;4.53;;
56653;SDS011;45096;52.302;4.634;2022-12-29T07:35:55;16.60;;;4.10;;
56653;SDS011;45096;52.302;4.634;2022-12-29T07:38:20;29.13;;;3.70;;
56653;SDS011;45096;52.302;4.634;2022-12-29T07:40:45;19.23;;;5.03;;
56653;SDS011;45096;52.302;4.634;2022-12-29T07:43:11;15.68;;;3.35;;
56653;SDS011;45096;52.302;4.634;2022-12-29T07:45:36;12.55;;;4.18;;
56653;SDS011;45096;52.302;4.634;2022-12-29T07:48:02;16.52;;;4.10;;
56653;SDS011;45096;52.302;4.634;2022-12-29T07:50:29;13.38;;;3.78;;
56653;SDS011;45096;52.302;4.634;2022-12-29T07:52:54;14.18;;;4.03;;
56653;SDS011;45096;52.302;4.634;2022-12-29T07:55:20;14.02;;;3.13;;
56653;SDS011;45096;52.302;4.634;2022-12-29T07:57:45;11.13;;;3.85;;
56653;SDS011;45096;52.302;4.634;2022-12-29T08:00:11;16.65;;;3.85;;
56653;SDS011;45096;52.302;4.634;2022-12-29T08:02:37;17.95;;;4.25;;
56653;SDS011;45096;52.302;4.634;2022-12-29T08:05:03;19.17;;;4.63;;
56653;SDS011;45096;52.302;4.634;2022-12-29T08:07:30;18.67;;;4.63;;
56653;SDS011;45096;52.302;4.634;2022-12-29T08:09:56;13.63;;;3.70;;
56653;SDS011;45096;52.302;4.634;2022-12-29T08:12:21;16.52;;;3.80;;
56653;SDS011;45096;52.302;4.634;2022-12-29T08:14:46;20.73;;;3.13;;
56653;SDS011;45096;52.302;4.634;2022-12-29T08:17:12;19.02;;;3.83;;
56653;SDS011;45096;52.302;4.634;2022-12-29T08:19:37;37.78;;;16.25;;
56653;SDS011;45096;52.302;4.634;2022-12-29T08:22:03;142.18;;;72.07;;
56653;SDS011;45096;52.302;4.634;2022-12-29T08:24:30;63.75;;;32.63;;
56653;SDS011;45096;52.302;4.634;2022-12-29T08:26:55;20.58;;;7.93;;
56653;SDS011;45096;52.302;4.634;2022-12-29T08:29:21;20.38;;;6.43;;
56653;SDS011;45096;52.302;4.634;2022-12-29T08:31:46;16.38;;;5.10;;
56653;SDS011;45096;52.302;4.634;2022-12-29T08:34:11;19.00;;;5.28;;
56653;SDS011;45096;52.302;4.634;2022-12-29T08:36:37;20.10;;;5.93;;
56653;SDS011;45096;52.302;4.634;2022-12-29T08:42:13;14.32;;;4.60;;
56653;SDS011;45096;52.302;4.634;2022-12-29T08:44:38;21.08;;;5.57;;
56653;SDS011;45096;52.302;4.634;2022-12-29T08:47:04;15.75;;;4.25;;
56653;SDS011;45096;52.302;4.634;2022-12-29T08:49:29;13.80;;;4.10;;
56653;SDS011;45096;52.302;4.634;2022-12-29T08:51:54;17.90;;;3.95;;
56653;SDS011;45096;52.302;4.634;2022-12-29T08:54:20;20.35;;;4.53;;
56653;SDS011;45096;52.302;4.634;2022-12-29T08:56:45;15.05;;;3.63;;
56653;SDS011;45096;52.302;4.634;2022-12-29T08:59:12;13.45;;;3.72;;
56653;SDS011;45096;52.302;4.634;2022-12-29T09:01:37;11.30;;;3.45;;
56653;SDS011;45096;52.302;4.634;2022-12-29T09:04:03;17.58;;;4.07;;
56653;SDS011;45096;52.302;4.634;2022-12-29T09:06:28;15.85;;;3.35;;
56653;SDS011;45096;52.302;4.634;2022-12-29T09:08:54;12.68;;;3.75;;
56653;SDS011;45096;52.302;4.634;2022-12-29T09:11:20;13.95;;;3.10;;
56653;SDS011;45096;52.302;4.634;2022-12-29T09:13:47;15.10;;;3.78;;
56653;SDS011;45096;52.302;4.634;2022-12-29T09:16:14;18.10;;;4.38;;
56653;SDS011;45096;52.302;4.634;2022-12-29T09:18:40;14.80;;;3.55;;
56653;SDS011;45096;52.302;4.634;2022-12-29T09:21:06;11.95;;;3.85;;
56653;SDS011;45096;52.302;4.634;2022-12-29T09:23:32;19.83;;;5.88;;
56653;SDS011;45096;52.302;4.634;2022-12-29T09:25:58;17.17;;;5.47;;
56653;SDS011;45096;52.302;4.634;2022-12-29T09:28:24;15.73;;;5.00;;
56653;SDS011;45096;52.302;4.634;2022-12-29T09:30:50;17.70;;;4.75;;
56653;SDS011;45096;52.302;4.634;2022-12-29T09:33:17;20.85;;;4.18;;
56653;SDS011;45096;52.302;4.634;2022-12-29T09:35:43;18.30;;;5.15;;
56653;SDS011;45096;52.302;4.634;2022-12-29T09:38:08;23.83;;;5.70;;
56653;SDS011;45096;52.302;4.634;2022-12-29T09:40:34;19.08;;;4.45;;
56653;SDS011;45096;52.302;4.634;2022-12-29T09:43:03;29.58;;;5.78;;
56653;SDS011;45096;52.302;4.634;2022-12-29T09:45:45;24.33;;;4.63;;
56653;SDS011;45096;52.302;4.634;2022-12-29T09:48:14;25.35;;;5.43;;
56653;SDS011;45096;52.302;4.634;2022-12-29T09:50:43;30.65;;;6.40;;
56653;SDS011;45096;52.302;4.634;2022-12-29T09:53:14;24.20;;;4.72;;
56653;SDS011;45096;52.302;4.634;2022-12-29T09:55:43;19.58;;;4.57;;
56653;SDS011;45096;52.302;4.634;2022-12-29T09:58:14;29.17;;;6.85;;
56653;SDS011;45096;52.302;4.634;2022-12-29T10:00:43;29.95;;;6.35;;
56653;SDS011;45096;52.302;4.634;2022-12-29T10:03:14;30.52;;;6.30;;
56653;SDS011;45096;52.302;4.634;2022-12-29T10:05:43;23.80;;;5.00;;
56653;SDS011;45096;52.302;4.634;2022-12-29T10:08:16;27.95;;;6.30;;
56653;SDS011;45096;52.302;4.634;2022-12-29T10:10:48;27.63;;;7.40;;
56653;SDS011;45096;52.302;4.634;2022-12-29T10:13:21;15.52;;;4.60;;
56653;SDS011;45096;52.302;4.634;2022-12-29T10:15:54;27.80;;;6.03;;
56653;SDS011;45096;52.302;4.634;2022-12-29T10:21:21;32.85;;;6.97;;
56653;SDS011;45096;52.302;4.634;2022-12-29T10:23:51;20.55;;;5.57;;
56653;SDS011;45096;52.302;4.634;2022-12-29T10:26:17;19.45;;;5.88;;
56653;SDS011;45096;52.302;4.634;2022-12-29T10:28:45;28.77;;;5.70;;
56653;SDS011;45096;52.302;4.634;2022-12-29T10:31:13;25.98;;;5.30;;
56653;SDS011;45096;52.302;4.634;2022-12-29T10:33:41;21.33;;;5.22;;
56653;SDS011;45096;52.302;4.634;2022-12-29T10:36:10;28.23;;;6.13;;
56653;SDS011;45096;52.302;4.634;2022-12-29T10:38:40;28.98;;;5.90;;
56653;SDS011;45096;52.302;4.634;2022-12-29T10:41:11;23.33;;;5.53;;
56653;SDS011;45096;52.302;4.634;2022-12-29T10:43:42;32.80;;;12.38;;
56653;SDS011;45096;52.302;4.634;2022-12-29T10:46:10;33.72;;;10.82;;
56653;SDS011;45096;52.302;4.634;2022-12-29T10:48:37;31.58;;;11.38;;
56653;SDS011;45096;52.302;4.634;2022-12-29T10:51:04;28.15;;;8.57;;
56653;SDS011;45096;52.302;4.634;2022-12-29T10:53:32;25.15;;;8.05;;
56653;SDS011;45096;52.302;4.634;2022-12-29T10:56:04;30.48;;;9.07;;
56653;SDS011;45096;52.302;4.634;2022-12-29T10:58:38;25.25;;;6.60;;
56653;SDS011;45096;52.302;4.634;2022-12-29T11:01:07;22.80;;;8.23;;
56653;SDS011;45096;52.302;4.634;2022-12-29T11:03:42;27.80;;;6.78;;
56653;SDS011;45096;52.302;4.634;2022-12-29T11:06:12;28.95;;;6.47;;
56653;SDS011;45096;52.302;4.634;2022-12-29T11:08:41;24.02;;;5.95;;
56653;SDS011;45096;52.302;4.634;2022-12-29T11:11:14;23.67;;;6.00;;
56653;SDS011;45096;52.302;4.634;2022-12-29T11:13:48;20.73;;;6.85;;
56653;SDS011;45096;52.302;4.634;2022-12-29T11:16:15;18.67;;;5.50;;
56653;SDS011;45096;52.302;4.634;2022-12-29T11:18:52;17.17;;;5.97;;
56653;SDS011;45096;52.302;4.634;2022-12-29T11:21:24;20.02;;;5.15;;
56653;SDS011;45096;52.302;4.634;2022-12-29T11:23:54;18.90;;;5.13;;
56653;SDS011;45096;52.302;4.634;2022-12-29T11:26:22;22.67;;;6.50;;
56653;SDS011;45096;52.302;4.634;2022-12-29T11:29:03;13.43;;;4.60;;
56653;SDS011;45096;52.302;4.634;2022-12-29T11:31:39;16.92;;;3.80;;
56653;SDS011;45096;52.302;4.634;2022-12-29T11:34:05;20.27;;;4.70;;
56653;SDS011;45096;52.302;4.634;2022-12-29T11:36:31;22.80;;;4.95;;
56653;SDS011;45096;52.302;4.634;2022-12-29T11:38:58;19.73;;;4.63;;
56653;SDS011;45096;52.302;4.634;2022-12-29T11:41:25;11.75;;;3.20;;
56653;SDS011;45096;52.302;4.634;2022-12-29T11:43:53;20.83;;;3.90;;
56653;SDS011;45096;52.302;4.634;2022-12-29T11:46:22;16.90;;;3.78;;
56653;SDS011;45096;52.302;4.634;2022-12-29T11:48:49;20.23;;;3.40;;
56653;SDS011;45096;52.302;4.634;2022-12-29T11:51:21;11.50;;;2.97;;
56653;SDS011;45096;52.302;4.634;2022-12-29T11:53:48;15.18;;;4.20;;
56653;SDS011;45096;52.302;4.634;2022-12-29T11:56:16;16.88;;;4.68;;
56653;SDS011;45096;52.302;4.634;2022-12-29T11:58:44;23.40;;;3.42;;
56653;SDS011;45096;52.302;4.634;2022-12-29T12:01:11;10.82;;;3.15;;
56653;SDS011;45096;52.302;4.634;2022-12-29T12:03:40;14.77;;;3.90;;
56653;SDS011;45096;52.302;4.634;2022-12-29T12:06:10;21.63;;;8.93;;
56653;SDS011;45096;52.302;4.634;2022-12-29T12:08:39;17.02;;;4.40;;
56653;SDS011;45096;52.302;4.634;2022-12-29T12:11:09;7.90;;;2.90;;
56653;SDS011;45096;52.302;4.634;2022-12-29T12:13:37;12.68;;;3.33;;
56653;SDS011;45096;52.302;4.634;2022-12-29T12:16:08;10.68;;;3.42;;
56653;SDS011;45096;52.302;4.634;2022-12-29T12:18:37;12.65;;;3.45;;
56653;SDS011;45096;52.302;4.634;2022-12-29T12:21:08;7.35;;;3.58;;
56653;SDS011;45096;52.302;4.634;2022-12-29T12:23:45;11.35;;;3.10;;
56653;SDS011;45096;52.302;4.634;2022-12-29T12:26:24;13.77;;;3.72;;
56653;SDS011;45096;52.302;4.634;2022-12-29T12:28:54;11.05;;;3.33;;
56653;SDS011;45096;52.302;4.634;2022-12-29T12:31:25;18.13;;;4.05;;
56653;SDS011;45096;52.302;4.634;2022-12-29T12:33:57;15.63;;;4.40;;
56653;SDS011;45096;52.302;4.634;2022-12-29T12:36:29;13.57;;;3.10;;
56653;SDS011;45096;52.302;4.634;2022-12-29T12:39:05;15.02;;;3.05;;
56653;SDS011;45096;52.302;4.634;2022-12-29T12:41:34;12.93;;;2.88;;
56653;SDS011;45096;52.302;4.634;2022-12-29T12:44:09;8.80;;;2.75;;
56653;SDS011;45096;52.302;4.634;2022-12-29T12:46:42;15.13;;;3.20;;
56653;SDS011;45096;52.302;4.634;2022-12-29T12:52:20;8.98;;;2.78;;
56653;SDS011;45096;52.302;4.634;2022-12-29T12:57:44;7.07;;;2.60;;
56653;SDS011;45096;52.302;4.634;2022-12-29T13:00:14;13.32;;;3.00;;
56653;SDS011;45096;52.302;4.634;2022-12-29T13:02:46;13.15;;;3.17;;
56653;SDS011;45096;52.302;4.634;2022-12-29T13:05:21;10.68;;;2.83;;
56653;SDS011;45096;52.302;4.634;2022-12-29T13:08:06;8.52;;;3.75;;
56653;SDS011;45096;52.302;4.634;2022-12-29T13:10:47;9.70;;;3.20;;
56653;SDS011;45096;52.302;4.634;2022-12-29T13:13:23;10.35;;;2.95;;
56653;SDS011;45096;52.302;4.634;2022-12-29T13:16:12;16.08;;;4.35;;
56653;SDS011;45096;52.302;4.634;2022-12-29T13:18:46;13.98;;;3.90;;
56653;SDS011;45096;52.302;4.634;2022-12-29T13:21:18;6.85;;;2.80;;
56653;SDS011;45096;52.302;4.634;2022-12-29T13:23:51;10.20;;;2.63;;
56653;SDS011;45096;52.302;4.634;2022-12-29T13:26:21;10.02;;;3.20;;
56653;SDS011;45096;52.302;4.634;2022-12-29T13:28:52;6.70;;;2.95;;
56653;SDS011;45096;52.302;4.634;2022-12-29T13:31:23;11.65;;;2.88;;
56653;SDS011;45096;52.302;4.634;2022-12-29T13:33:55;12.80;;;2.75;;
56653;SDS011;45096;52.302;4.634;2022-12-29T13:36:27;14.05;;;3.58;;
56653;SDS011;45096;52.302;4.634;2022-12-29T13:38:58;10.55;;;3.70;;
56653;SDS011;45096;52.302;4.634;2022-12-29T13:41:27;10.95;;;3.03;;
56653;SDS011;45096;52.302;4.634;2022-12-29T13:43:55;11.85;;;2.97;;
56653;SDS011;45096;52.302;4.634;2022-12-29T13:46:23;15.98;;;4.68;;
56653;SDS011;45096;52.302;4.634;2022-12-29T13:48:51;12.02;;;3.40;;
56653;SDS011;45096;52.302;4.634;2022-12-29T13:51:21;11.55;;;2.83;;
56653;SDS011;45096;52.302;4.634;2022-12-29T13:53:54;13.73;;;3.00;;
56653;SDS011;45096;52.302;4.634;2022-12-29T13:56:24;18.13;;;3.03;;
56653;SDS011;45096;52.302;4.634;2022-12-29T13:58:53;22.50;;;5.13;;
56653;SDS011;45096;52.302;4.634;2022-12-29T14:01:20;11.40;;;2.80;;
56653;SDS011;45096;52.302;4.634;2022-12-29T14:03:48;12.20;;;3.33;;
56653;SDS011;45096;52.302;4.634;2022-12-29T14:06:25;11.27;;;3.20;;
56653;SDS011;45096;52.302;4.634;2022-12-29T14:08:52;9.05;;;3.13;;
56653;SDS011;45096;52.302;4.634;2022-12-29T14:11:20;17.23;;;3.42;;
56653;SDS011;45096;52.302;4.634;2022-12-29T14:13:47;19.83;;;3.85;;
56653;SDS011;45096;52.302;4.634;2022-12-29T14:16:21;17.40;;;3.78;;
56653;SDS011;45096;52.302;4.634;2022-12-29T14:18:53;19.00;;;3.80;;
56653;SDS011;45096;52.302;4.634;2022-12-29T14:21:20;13.77;;;2.92;;
56653;SDS011;45096;52.302;4.634;2022-12-29T14:23:48;17.10;;;2.85;;
56653;SDS011;45096;52.302;4.634;2022-12-29T14:26:16;9.20;;;3.40;;
56653;SDS011;45096;52.302;4.634;2022-12-29T14:28:43;13.85;;;3.60;;
56653;SDS011;45096;52.302;4.634;2022-12-29T14:36:52;10.60;;;3.08;;
56653;SDS011;45096;52.302;4.634;2022-12-29T14:39:28;14.82;;;3.60;;
56653;SDS011;45096;52.302;4.634;2022-12-29T14:41:59;8.80;;;2.45;;
56653;SDS011;45096;52.302;4.634;2022-12-29T14:44:25;11.15;;;2.80;;
56653;SDS011;45096;52.302;4.634;2022-12-29T14:46:55;8.93;;;2.65;;
56653;SDS011;45096;52.302;4.634;2022-12-29T14:49:22;12.43;;;3.15;;
56653;SDS011;45096;52.302;4.634;2022-12-29T14:51:48;12.93;;;2.88;;
56653;SDS011;45096;52.302;4.634;2022-12-29T14:54:42;11.30;;;3.65;;
56653;SDS011;45096;52.302;4.634;2022-12-29T14:57:31;11.98;;;3.10;;
56653;SDS011;45096;52.302;4.634;2022-12-29T15:00:02;11.40;;;3.17;;
56653;SDS011;45096;52.302;4.634;2022-12-29T15:02:32;12.20;;;3.97;;